Time;durP1;ratioP1;P1;durP2;ratioP2;P2;SDS_P1;SDS_P2;PMS_P1;PMS_P2;Temp;Humidity;BMP_temperature;BMP_pressure;BME280_temperature;BME280_humidity;BME280_pressure;Samples;Min_cycle;Max_cycle;Signal;HPM_P1;HPM_P2
2022/08/25 00:01:44;;;;;;;;;;;23.30;99.90;;;;;;5130108;28;20355;-67
2022/08/25 00:04:12;;;;;;;;;;;23.30;99.90;;;;;;5131056;27;19929;-67
2022/08/25 00:06:39;;;;;;;;;;;23.30;99.90;;;;;;5131233;27;19983;-67
2022/08/25 00:09:09;;;;;;;;;;;23.20;99.90;;;;;;5124785;27;19988;-68
2022/08/25 00:11:37;;;;;;;;;;;23.20;99.90;;;;;;5130980;27;19931;-67
2022/08/25 00:14:05;;;;;;;;;;;23.10;99.90;;;;;;5131318;27;19929;-67
2022/08/25 00:16:32;;;;;;;;;;;23.10;99.90;;;;;;5129001;27;19927;-67
2022/08/25 00:19:00;;;;;;;;;;;23.00;99.90;;;;;;5130470;27;19931;-67
2022/08/25 00:21:27;;;;;;;;;;;23.10;99.90;;;;;;5124052;28;20012;-68
2022/08/25 00:23:54;;;;;;;;;;;23.00;99.90;;;;;;5130893;28;19924;-68
2022/08/25 00:26:22;;;;;;;;;;;23.00;99.90;;;;;;5131041;27;19924;-67
2022/08/25 00:28:49;;;;;;;;;;;22.90;99.90;;;;;;5127958;28;20340;-68
2022/08/25 00:31:17;;;;;;;;;;;22.90;99.90;;;;;;5130753;27;19954;-67
2022/08/25 00:33:45;;;;;;;;;;;22.80;99.90;;;;;;5129374;27;19923;-67
2022/08/25 00:36:12;;;;;;;;;;;22.90;99.90;;;;;;5124821;27;19927;-67
2022/08/25 00:38:39;;;;;;;;;;;22.80;99.90;;;;;;5134049;27;20471;-68
2022/08/25 00:41:06;;;;;;;;;;;22.80;99.90;;;;;;5134393;27;19923;-67
2022/08/25 00:43:36;;;;;;;;;;;22.80;99.90;;;;;;5128217;27;20356;-67
2022/08/25 00:46:03;;;;;;;;;;;22.70;99.90;;;;;;5131322;27;19923;-67
2022/08/25 00:48:30;;;;;;;;;;;22.70;99.90;;;;;;5126347;27;20007;-67
2022/08/25 00:50:57;;;;;;;;;;;22.60;99.90;;;;;;5126426;27;19968;-68
2022/08/25 00:53:24;;;;;;;;;;;22.50;99.90;;;;;;5134062;27;19980;-68
2022/08/25 00:58:50;;;;;;;;;;;22.40;99.90;;;;;;5008459;28;19956;-69
2022/08/25 01:01:17;;;;;;;;;;;22.40;99.90;;;;;;5003187;28;19927;-69
2022/08/25 01:03:44;;;;;;;;;;;22.40;99.90;;;;;;4999828;28;19926;-70
2022/08/25 01:06:11;;;;;;;;;;;22.40;99.90;;;;;;5013323;28;19925;-69
2022/08/25 01:08:37;;;;;;;;;;;22.30;99.90;;;;;;4992297;28;19926;-70
2022/08/25 01:11:06;;;;;;;;;;;22.30;99.90;;;;;;4988451;28;19929;-69
2022/08/25 01:13:34;;;;;;;;;;;22.20;99.90;;;;;;4988418;28;19929;-68
2022/08/25 01:16:02;;;;;;;;;;;22.20;99.90;;;;;;4985354;28;19971;-69
2022/08/25 01:18:29;;;;;;;;;;;22.20;99.90;;;;;;4990863;28;19925;-70
2022/08/25 01:20:58;;;;;;;;;;;22.20;99.90;;;;;;4993530;28;19925;-69
2022/08/25 01:23:25;;;;;;;;;;;22.10;99.90;;;;;;4986431;28;19997;-69
2022/08/25 01:25:55;;;;;;;;;;;22.00;99.90;;;;;;4988238;28;19925;-70
2022/08/25 01:28:23;;;;;;;;;;;22.00;99.90;;;;;;4993917;28;19933;-70
2022/08/25 01:30:49;;;;;;;;;;;22.00;99.90;;;;;;5004217;28;19926;-69
2022/08/25 01:33:16;;;;;;;;;;;22.00;99.90;;;;;;4988203;28;19925;-69
2022/08/25 01:35:43;;;;;;;;;;;22.00;99.90;;;;;;4983849;28;20332;-70
2022/08/25 01:38:12;;;;;;;;;;;22.00;99.90;;;;;;5012221;28;19926;-69
2022/08/25 01:40:39;;;;;;;;;;;21.90;99.90;;;;;;4980221;28;19930;-69
2022/08/25 01:43:08;;;;;;;;;;;21.80;99.90;;;;;;4987468;28;19929;-70
2022/08/25 01:45:35;;;;;;;;;;;21.80;99.90;;;;;;4990386;28;19933;-70
2022/08/25 01:48:02;;;;;;;;;;;21.80;99.90;;;;;;4992571;28;19925;-69
2022/08/25 01:50:29;;;;;;;;;;;21.80;99.90;;;;;;4987274;28;19930;-67
2022/08/25 01:52:58;;;;;;;;;;;21.70;99.90;;;;;;4996870;28;19941;-70
2022/08/25 01:55:27;;;;;;;;;;;21.70;99.90;;;;;;4987813;28;19925;-70
2022/08/25 01:57:53;;;;;;;;;;;21.70;99.90;;;;;;4989338;28;19930;-69
2022/08/25 02:00:21;;;;;;;;;;;21.70;99.90;;;;;;4992581;28;19988;-70
2022/08/25 02:02:48;;;;;;;;;;;21.60;99.90;;;;;;5000068;28;19933;-69
2022/08/25 02:05:15;;;;;;;;;;;21.60;99.90;;;;;;4994971;28;19926;-69
2022/08/25 02:07:42;;;;;;;;;;;21.50;99.90;;;;;;4991913;28;20509;-70
2022/08/25 02:10:10;;;;;;;;;;;21.50;99.90;;;;;;4988722;28;19930;-69
2022/08/25 02:12:39;;;;;;;;;;;21.40;99.90;;;;;;4992397;28;19930;-69
2022/08/25 02:15:06;;;;;;;;;;;21.40;99.90;;;;;;4994716;28;19930;-70
2022/08/25 02:17:35;;;;;;;;;;;21.30;99.90;;;;;;4992020;28;19938;-69
2022/08/25 02:20:02;;;;;;;;;;;21.40;99.90;;;;;;4994899;28;19930;-70
2022/08/25 02:22:29;;;;;;;;;;;21.40;99.90;;;;;;4990923;28;19934;-70
2022/08/25 02:24:55;;;;;;;;;;;21.40;99.90;;;;;;4990933;28;19930;-70
2022/08/25 02:27:23;;;;;;;;;;;21.40;99.90;;;;;;4990706;28;19926;-70
2022/08/25 02:29:51;;;;;;;;;;;21.40;99.90;;;;;;4990228;28;19949;-70
2022/08/25 02:32:18;;;;;;;;;;;21.40;99.90;;;;;;4993231;28;19932;-70
2022/08/25 02:34:45;;;;;;;;;;;21.40;99.90;;;;;;4991004;28;19925;-70
2022/08/25 02:37:12;;;;;;;;;;;21.40;99.90;;;;;;4992366;28;19972;-69
2022/08/25 02:39:39;;;;;;;;;;;21.40;99.90;;;;;;4990274;28;19929;-70
2022/08/25 02:42:06;;;;;;;;;;;21.40;99.90;;;;;;4993410;28;19930;-70
2022/08/25 02:44:33;;;;;;;;;;;21.40;99.90;;;;;;4998558;28;20040;-70
2022/08/25 02:47:01;;;;;;;;;;;21.40;99.90;;;;;;4990415;28;19926;-70
2022/08/25 02:49:29;;;;;;;;;;;21.30;99.90;;;;;;4989600;28;19933;-69
2022/08/25 02:51:57;;;;;;;;;;;21.40;99.90;;;;;;4991485;28;19930;-69
2022/08/25 02:54:24;;;;;;;;;;;21.40;99.90;;;;;;5001757;28;19930;-69
2022/08/25 02:56:51;;;;;;;;;;;21.40;99.90;;;;;;4992121;28;19925;-69
2022/08/25 02:59:18;;;;;;;;;;;21.50;99.90;;;;;;4990920;28;19976;-69
2022/08/25 03:01:45;;;;;;;;;;;21.40;99.90;;;;;;4997310;28;20382;-69
2022/08/25 03:04:13;;;;;;;;;;;21.50;99.90;;;;;;4997177;28;19926;-69
2022/08/25 03:06:40;;;;;;;;;;;21.50;99.90;;;;;;4994212;28;19965;-69
2022/08/25 03:09:06;;;;;;;;;;;21.60;99.90;;;;;;4996374;28;19929;-69
2022/08/25 03:11:33;;;;;;;;;;;21.60;99.90;;;;;;4993964;28;19930;-69
2022/08/25 03:14:00;;;;;;;;;;;21.60;99.90;;;;;;4991199;28;19930;-69
2022/08/25 03:16:27;;;;;;;;;;;21.60;99.90;;;;;;4992286;28;19965;-69
2022/08/25 03:18:53;;;;;;;;;;;21.60;99.90;;;;;;4992303;28;19929;-69
2022/08/25 03:21:22;;;;;;;;;;;21.50;99.90;;;;;;4995666;28;19934;-69
2022/08/25 03:23:48;;;;;;;;;;;21.40;99.90;;;;;;4991094;28;19926;-69
2022/08/25 03:29:03;;;;;;;;;;;21.40;99.90;;;;;;5001945;28;19922;-69
2022/08/25 03:31:31;;;;;;;;;;;21.30;99.90;;;;;;4987654;28;19926;-69
2022/08/25 03:33:58;;;;;;;;;;;21.30;99.90;;;;;;4991184;28;19926;-70
2022/08/25 03:36:27;;;;;;;;;;;21.30;99.90;;;;;;4994739;28;20271;-70
2022/08/25 03:38:54;;;;;;;;;;;21.30;99.90;;;;;;5001076;28;19930;-69
2022/08/25 03:41:23;;;;;;;;;;;21.30;99.90;;;;;;4989870;28;19937;-70
2022/08/25 03:43:50;;;;;;;;;;;21.30;99.90;;;;;;4997479;28;19926;-70
2022/08/25 03:46:18;;;;;;;;;;;21.20;99.90;;;;;;4989525;28;19941;-69
2022/08/25 03:48:45;;;;;;;;;;;21.20;99.90;;;;;;4994052;28;19926;-68
2022/08/25 03:51:12;;;;;;;;;;;21.20;99.90;;;;;;4990531;28;19926;-67
2022/08/25 03:53:40;;;;;;;;;;;21.20;99.90;;;;;;4990743;28;20343;-69
2022/08/25 03:56:08;;;;;;;;;;;21.20;99.90;;;;;;4987933;28;19933;-70
2022/08/25 03:58:34;;;;;;;;;;;21.10;99.90;;;;;;4990881;28;19935;-69
2022/08/25 04:01:01;;;;;;;;;;;21.10;99.90;;;;;;4990572;28;19926;-69
2022/08/25 04:03:28;;;;;;;;;;;21.10;99.90;;;;;;4993853;28;19984;-69
2022/08/25 04:05:55;;;;;;;;;;;21.00;99.90;;;;;;4990737;28;20393;-69
2022/08/25 04:08:22;;;;;;;;;;;20.90;99.90;;;;;;5001680;28;19933;-69
2022/08/25 04:10:50;;;;;;;;;;;21.00;99.90;;;;;;4994574;28;19926;-69
2022/08/25 04:13:18;;;;;;;;;;;21.00;99.90;;;;;;4993897;28;19976;-69
2022/08/25 04:15:45;;;;;;;;;;;21.00;99.90;;;;;;4997706;28;19925;-70
2022/08/25 04:18:12;;;;;;;;;;;20.90;99.90;;;;;;4998891;28;19926;-70
2022/08/25 04:20:39;;;;;;;;;;;20.80;99.90;;;;;;4992602;28;20314;-70
2022/08/25 04:23:06;;;;;;;;;;;20.80;99.90;;;;;;4990806;28;19948;-70
2022/08/25 04:25:32;;;;;;;;;;;20.70;99.90;;;;;;5007312;28;19929;-70
2022/08/25 04:28:01;;;;;;;;;;;20.70;99.90;;;;;;4993039;28;20340;-70
2022/08/25 04:30:28;;;;;;;;;;;20.60;99.90;;;;;;4994442;28;19938;-68
2022/08/25 04:32:54;;;;;;;;;;;20.60;99.90;;;;;;4992805;28;19929;-69
2022/08/25 04:35:22;;;;;;;;;;;20.50;99.90;;;;;;4997026;28;19926;-70
2022/08/25 04:37:49;;;;;;;;;;;20.50;99.90;;;;;;4992495;28;19930;-70
2022/08/25 04:40:16;;;;;;;;;;;20.50;99.90;;;;;;5008851;28;19950;-70
2022/08/25 04:42:43;;;;;;;;;;;20.50;99.90;;;;;;4993576;28;19925;-69
2022/08/25 04:45:12;;;;;;;;;;;20.50;99.90;;;;;;5003424;28;20328;-70
2022/08/25 04:47:39;;;;;;;;;;;20.50;99.90;;;;;;4999984;28;19972;-71
2022/08/25 04:50:07;;;;;;;;;;;20.50;99.90;;;;;;4994069;28;19979;-69
2022/08/25 04:52:33;;;;;;;;;;;20.50;99.90;;;;;;4992624;28;19933;-70
2022/08/25 04:55:00;;;;;;;;;;;20.40;99.90;;;;;;4992412;28;19930;-71
2022/08/25 04:57:27;;;;;;;;;;;20.50;99.90;;;;;;4992423;28;19948;-73
2022/08/25 04:59:54;;;;;;;;;;;20.50;99.90;;;;;;4993916;28;19941;-69
2022/08/25 05:02:24;;;;;;;;;;;20.50;99.90;;;;;;4988467;28;20353;-70
2022/08/25 05:04:50;;;;;;;;;;;20.50;99.90;;;;;;4991739;28;20292;-69
2022/08/25 05:07:17;;;;;;;;;;;20.60;99.90;;;;;;4993048;28;19929;-70
2022/08/25 05:09:44;;;;;;;;;;;20.70;99.90;;;;;;4991236;28;20137;-71
2022/08/25 05:12:11;;;;;;;;;;;20.70;99.90;;;;;;4991107;28;20037;-69
2022/08/25 05:14:37;;;;;;;;;;;20.70;99.90;;;;;;4991905;28;19926;-70
2022/08/25 05:17:05;;;;;;;;;;;20.80;99.90;;;;;;4993498;28;19949;-70
2022/08/25 05:19:34;;;;;;;;;;;20.80;99.90;;;;;;4987244;28;20015;-70
2022/08/25 05:22:01;;;;;;;;;;;20.80;99.90;;;;;;4991882;28;20290;-70
2022/08/25 05:24:28;;;;;;;;;;;20.90;99.90;;;;;;4992240;28;19976;-69
2022/08/25 05:26:55;;;;;;;;;;;20.90;99.90;;;;;;4993644;28;20369;-68
2022/08/25 05:29:22;;;;;;;;;;;20.90;99.90;;;;;;4992984;28;19972;-67
2022/08/25 05:31:49;;;;;;;;;;;21.00;99.90;;;;;;4994753;28;19926;-67
2022/08/25 05:34:17;;;;;;;;;;;21.10;99.90;;;;;;4991444;28;20365;-67
2022/08/25 05:36:45;;;;;;;;;;;21.10;99.90;;;;;;4993003;28;19927;-68
2022/08/25 05:39:12;;;;;;;;;;;21.10;99.90;;;;;;4991099;28;19926;-69
2022/08/25 05:41:39;;;;;;;;;;;21.20;99.90;;;;;;4992536;28;19959;-72
2022/08/25 05:44:06;;;;;;;;;;;21.30;99.90;;;;;;4994074;28;19929;-67
2022/08/25 05:46:33;;;;;;;;;;;21.40;99.90;;;;;;4991565;28;19993;-67
2022/08/25 05:49:00;;;;;;;;;;;21.50;99.90;;;;;;4991059;28;19933;-68
2022/08/25 05:51:27;;;;;;;;;;;21.60;99.90;;;;;;4991675;28;19933;-70
2022/08/25 05:53:55;;;;;;;;;;;21.70;99.90;;;;;;4992676;28;19933;-70
2022/08/25 05:56:22;;;;;;;;;;;21.80;99.90;;;;;;4991563;28;19932;-70
2022/08/25 05:58:50;;;;;;;;;;;21.80;99.90;;;;;;4966717;28;19973;-68
2022/08/25 06:04:08;;;;;;;;;;;22.00;99.90;;;;;;4981913;28;19922;-71
2022/08/25 06:06:35;;;;;;;;;;;22.00;99.90;;;;;;4967035;28;19926;-71
2022/08/25 06:09:07;;;;;;;;;;;22.10;99.90;;;;;;4964074;28;20046;-71
2022/08/25 06:11:34;;;;;;;;;;;22.20;99.90;;;;;;4963938;28;19969;-71
2022/08/25 06:14:01;;;;;;;;;;;22.30;99.90;;;;;;4966007;28;19927;-71
2022/08/25 06:16:28;;;;;;;;;;;22.30;99.90;;;;;;4963954;28;20002;-70
2022/08/25 06:18:54;;;;;;;;;;;22.30;99.90;;;;;;4963095;28;19926;-70
2022/08/25 06:21:21;;;;;;;;;;;22.30;99.90;;;;;;4963329;28;20386;-70
2022/08/25 06:23:49;;;;;;;;;;;22.40;99.90;;;;;;4966715;28;19926;-71
2022/08/25 06:26:17;;;;;;;;;;;22.40;99.90;;;;;;4962553;28;20341;-71
2022/08/25 06:28:44;;;;;;;;;;;22.40;99.90;;;;;;4968547;28;19925;-68
2022/08/25 06:31:11;;;;;;;;;;;22.50;99.90;;;;;;4965734;28;19926;-71
2022/08/25 06:33:37;;;;;;;;;;;22.60;99.90;;;;;;4966729;28;19933;-70
2022/08/25 06:36:05;;;;;;;;;;;22.70;99.90;;;;;;4965894;28;19926;-71
2022/08/25 06:38:32;;;;;;;;;;;22.80;99.90;;;;;;4977116;28;19985;-71
2022/08/25 06:41:01;;;;;;;;;;;22.90;99.90;;;;;;4967325;28;19933;-71
2022/08/25 06:43:29;;;;;;;;;;;22.90;99.90;;;;;;4963437;28;19930;-69
2022/08/25 06:45:56;;;;;;;;;;;23.00;99.90;;;;;;4967907;28;19937;-71
2022/08/25 06:48:23;;;;;;;;;;;23.10;99.90;;;;;;4965319;28;19930;-71
2022/08/25 06:50:49;;;;;;;;;;;23.10;99.90;;;;;;4963757;28;19973;-71
2022/08/25 06:53:16;;;;;;;;;;;23.10;99.90;;;;;;4979121;28;19936;-71
2022/08/25 06:55:43;;;;;;;;;;;23.10;99.90;;;;;;4966600;28;19933;-71
2022/08/25 06:58:10;;;;;;;;;;;23.20;99.90;;;;;;4987250;28;19926;-71
2022/08/25 07:00:38;;;;;;;;;;;23.20;99.90;;;;;;4994994;28;19997;-71
2022/08/25 07:03:05;;;;;;;;;;;23.20;99.90;;;;;;4990326;28;19988;-71
2022/08/25 07:05:31;;;;;;;;;;;23.20;99.90;;;;;;5003121;28;19930;-71
2022/08/25 07:07:58;;;;;;;;;;;23.30;99.90;;;;;;4990487;28;19926;-71
2022/08/25 07:10:25;;;;;;;;;;;23.30;99.90;;;;;;4990098;28;19938;-71
2022/08/25 07:12:52;;;;;;;;;;;23.30;99.90;;;;;;4992386;28;20016;-71
2022/08/25 07:15:19;;;;;;;;;;;23.30;99.90;;;;;;4990278;28;20350;-71
2022/08/25 07:17:47;;;;;;;;;;;23.30;99.90;;;;;;4991186;28;20398;-71
2022/08/25 07:20:14;;;;;;;;;;;23.40;99.90;;;;;;4990054;28;19929;-71
2022/08/25 07:22:41;;;;;;;;;;;23.50;99.90;;;;;;4990692;28;19926;-71
2022/08/25 07:25:09;;;;;;;;;;;23.60;99.90;;;;;;4990223;28;20357;-71
2022/08/25 07:27:36;;;;;;;;;;;23.70;99.90;;;;;;4995234;28;19937;-71
2022/08/25 07:30:04;;;;;;;;;;;23.80;99.90;;;;;;4993487;28;19925;-71
2022/08/25 07:32:31;;;;;;;;;;;23.80;99.90;;;;;;4990022;28;19930;-71
2022/08/25 07:35:19;;;;;;;;;;;23.80;99.90;;;;;;4990935;28;19976;-71
2022/08/25 07:37:46;;;;;;;;;;;23.90;99.90;;;;;;5005587;28;19926;-70
2022/08/25 07:40:14;;;;;;;;;;;24.00;99.90;;;;;;4992224;28;19929;-71
2022/08/25 07:42:41;;;;;;;;;;;24.10;99.90;;;;;;4992905;28;19953;-71
2022/08/25 07:45:09;;;;;;;;;;;24.20;99.90;;;;;;4998489;28;19977;-71
2022/08/25 07:47:36;;;;;;;;;;;24.30;99.90;;;;;;4994969;28;19930;-71
2022/08/25 07:50:05;;;;;;;;;;;24.30;99.90;;;;;;4993738;28;19933;-71
2022/08/25 07:52:32;;;;;;;;;;;24.40;99.90;;;;;;4994615;28;20356;-71
2022/08/25 07:54:59;;;;;;;;;;;24.50;99.90;;;;;;5003702;28;19926;-70
2022/08/25 07:57:27;;;;;;;;;;;24.70;99.90;;;;;;4993032;28;19949;-71
2022/08/25 07:59:53;;;;;;;;;;;24.70;99.90;;;;;;4993272;28;19935;-71
2022/08/25 08:02:20;;;;;;;;;;;24.80;99.90;;;;;;4994655;28;19980;-71
2022/08/25 08:04:48;;;;;;;;;;;24.90;99.90;;;;;;4993752;28;19934;-72
2022/08/25 08:07:17;;;;;;;;;;;25.00;99.90;;;;;;4993394;28;20349;-72
2022/08/25 08:09:44;;;;;;;;;;;25.00;99.90;;;;;;4992935;28;19929;-72
2022/08/25 08:12:11;;;;;;;;;;;25.10;99.90;;;;;;4995811;28;19926;-71
2022/08/25 08:14:37;;;;;;;;;;;25.10;99.90;;;;;;4997437;28;20464;-72
2022/08/25 08:17:05;;;;;;;;;;;25.20;99.90;;;;;;4993358;28;19926;-71
2022/08/25 08:19:32;;;;;;;;;;;25.30;99.90;;;;;;4984876;28;19925;-72
2022/08/25 08:21:59;;;;;;;;;;;25.40;99.90;;;;;;4993230;28;19949;-72
2022/08/25 08:24:28;;;;;;;;;;;25.50;99.90;;;;;;4998617;28;19934;-72
2022/08/25 08:26:55;;;;;;;;;;;25.50;99.90;;;;;;4998091;28;20279;-72
2022/08/25 08:29:22;;;;;;;;;;;25.60;99.90;;;;;;4994791;28;19980;-72
2022/08/25 08:31:49;;;;;;;;;;;25.70;99.90;;;;;;4993085;28;19933;-71
2022/08/25 08:34:16;;;;;;;;;;;25.80;99.90;;;;;;4993973;28;20349;-72
2022/08/25 08:36:43;;;;;;;;;;;25.90;99.90;;;;;;4996280;28;20037;-71
2022/08/25 08:39:10;;;;;;;;;;;26.00;99.90;;;;;;4992652;28;19968;-72
2022/08/25 08:44:37;;;;;;;;;;;26.10;99.90;;;;;;4990016;28;19940;-72
2022/08/25 08:47:05;;;;;;;;;;;26.20;99.90;;;;;;4992640;28;19954;-71
2022/08/25 08:49:35;;;;;;;;;;;26.20;99.90;;;;;;4992066;28;20460;-71
2022/08/25 08:52:02;;;;;;;;;;;26.30;99.90;;;;;;4992733;28;20397;-71
2022/08/25 08:54:31;;;;;;;;;;;26.40;99.90;;;;;;4991950;28;20446;-72
2022/08/25 08:57:04;;;;;;;;;;;26.50;99.90;;;;;;4992172;28;19937;-72
2022/08/25 08:59:37;;;;;;;;;;;26.50;99.90;;;;;;4985765;28;19925;-72
2022/08/25 09:02:05;;;;;;;;;;;26.60;99.90;;;;;;4992471;28;19926;-72
2022/08/25 09:04:34;;;;;;;;;;;26.80;99.90;;;;;;4990388;28;20014;-72
2022/08/25 09:07:02;;;;;;;;;;;27.00;99.90;;;;;;4994280;28;19956;-71
2022/08/25 09:09:30;;;;;;;;;;;27.10;99.90;;;;;;4997017;28;19925;-72
2022/08/25 09:12:04;;;;;;;;;;;27.20;99.90;;;;;;4992289;28;19929;-71
2022/08/25 09:14:38;;;;;;;;;;;27.30;99.90;;;;;;4992054;28;20452;-72
2022/08/25 09:17:07;;;;;;;;;;;27.40;99.90;;;;;;4993224;28;20424;-71
2022/08/25 09:19:44;;;;;;;;;;;27.50;99.90;;;;;;4991847;28;19968;-72
2022/08/25 09:22:16;;;;;;;;;;;27.60;99.90;;;;;;4992391;28;19934;-71
2022/08/25 09:24:48;;;;;;;;;;;27.60;99.90;;;;;;4992540;28;19925;-72
2022/08/25 09:27:18;;;;;;;;;;;27.70;99.90;;;;;;4991845;28;19926;-72
2022/08/25 09:29:54;;;;;;;;;;;27.80;99.90;;;;;;4991489;28;19968;-72
2022/08/25 09:32:21;;;;;;;;;;;27.90;99.90;;;;;;4991816;28;20356;-72
2022/08/25 09:34:50;;;;;;;;;;;28.10;99.90;;;;;;4992447;28;19930;-72
2022/08/25 09:37:17;;;;;;;;;;;28.20;99.90;;;;;;4995614;28;19953;-72
2022/08/25 09:39:43;;;;;;;;;;;28.40;99.90;;;;;;4991597;28;20357;-72
2022/08/25 09:42:10;;;;;;;;;;;28.50;99.90;;;;;;4992217;28;19926;-73
2022/08/25 09:44:42;;;;;;;;;;;28.50;99.90;;;;;;4996881;28;19926;-72
2022/08/25 09:47:14;;;;;;;;;;;28.60;99.90;;;;;;4991988;28;20024;-71
2022/08/25 09:49:42;;;;;;;;;;;28.70;99.90;;;;;;4992454;28;20389;-72
2022/08/25 09:52:39;;;;;;;;;;;28.80;99.90;;;;;;5007921;28;20397;-71
2022/08/25 09:55:38;;;;;;;;;;;28.80;99.90;;;;;;4951627;28;19930;-72
2022/08/25 09:58:13;;;;;;;;;;;28.90;99.90;;;;;;4916777;29;20415;-72
2022/08/25 10:00:41;;;;;;;;;;;29.00;99.90;;;;;;4980035;28;20337;-72
2022/08/25 10:03:11;;;;;;;;;;;29.10;99.90;;;;;;4991337;28;19930;-72
2022/08/25 10:05:47;;;;;;;;;;;29.30;99.90;;;;;;4990907;28;19930;-72
2022/08/25 10:08:22;;;;;;;;;;;29.40;99.90;;;;;;4990924;28;19926;-72
2022/08/25 10:10:53;;;;;;;;;;;29.60;99.90;;;;;;4990954;28;20365;-72
2022/08/25 10:13:22;;;;;;;;;;;29.80;99.90;;;;;;4992959;28;19926;-72
2022/08/25 10:16:02;;;;;;;;;;;30.00;99.90;;;;;;4995222;28;19930;-72
2022/08/25 10:18:29;;;;;;;;;;;30.20;99.80;;;;;;4990902;28;19948;-72
2022/08/25 10:21:04;;;;;;;;;;;30.40;99.90;;;;;;4994919;28;19976;-72
2022/08/25 10:23:32;;;;;;;;;;;30.40;99.90;;;;;;4988110;28;19930;-72
2022/08/25 10:26:03;;;;;;;;;;;30.40;99.80;;;;;;4990937;28;19945;-72
2022/08/25 10:28:33;;;;;;;;;;;30.30;99.90;;;;;;4990598;28;20362;-72
2022/08/25 10:31:05;;;;;;;;;;;30.40;99.90;;;;;;4994065;28;19955;-72
2022/08/25 10:33:37;;;;;;;;;;;30.40;99.90;;;;;;5004549;28;19985;-72
2022/08/25 10:36:08;;;;;;;;;;;30.50;99.90;;;;;;4973898;28;21737;-72
2022/08/25 10:38:39;;;;;;;;;;;30.70;99.50;;;;;;4990197;28;19925;-72
2022/08/25 10:41:12;;;;;;;;;;;30.70;99.60;;;;;;4987606;28;19930;-72
2022/08/25 10:43:43;;;;;;;;;;;30.80;98.00;;;;;;4995400;28;19976;-72
2022/08/25 10:46:14;;;;;;;;;;;31.10;98.50;;;;;;4990602;28;19929;-72
2022/08/25 10:48:52;;;;;;;;;;;31.10;98.30;;;;;;4990271;28;20012;-72
2022/08/25 10:51:29;;;;;;;;;;;31.40;99.00;;;;;;4991477;28;19939;-72
2022/08/25 10:53:58;;;;;;;;;;;31.50;97.20;;;;;;4985706;28;20000;-73
2022/08/25 10:56:29;;;;;;;;;;;31.50;96.70;;;;;;4990531;28;20015;-72
2022/08/25 10:59:07;;;;;;;;;;;31.60;97.10;;;;;;5009728;28;19930;-72
2022/08/25 11:01:40;;;;;;;;;;;31.70;97.70;;;;;;5004697;28;19929;-72
2022/08/25 11:04:10;;;;;;;;;;;32.00;98.10;;;;;;4990443;28;19925;-72
2022/08/25 11:06:40;;;;;;;;;;;32.20;96.10;;;;;;4990510;28;19932;-72
2022/08/25 11:09:09;;;;;;;;;;;32.20;97.00;;;;;;4997592;28;19933;-73
2022/08/25 11:11:38;;;;;;;;;;;32.10;97.00;;;;;;4992265;28;20364;-72
2022/08/25 11:14:07;;;;;;;;;;;32.00;97.20;;;;;;4992078;28;19926;-72
2022/08/25 11:16:38;;;;;;;;;;;32.20;97.40;;;;;;5005892;28;19968;-72
2022/08/25 11:19:12;;;;;;;;;;;32.10;96.20;;;;;;4989737;28;19930;-73
2022/08/25 11:21:42;;;;;;;;;;;32.50;96.40;;;;;;5004611;28;19926;-72
2022/08/25 11:24:13;;;;;;;;;;;32.90;96.10;;;;;;4989750;28;20028;-73
2022/08/25 11:26:42;;;;;;;;;;;33.20;96.40;;;;;;4995063;28;19926;-72
2022/08/25 11:29:12;;;;;;;;;;;33.50;95.80;;;;;;4991929;28;19929;-73
2022/08/25 11:31:40;;;;;;;;;;;33.90;95.00;;;;;;4994191;28;19960;-72
2022/08/25 11:34:13;;;;;;;;;;;36.20;94.80;;;;;;4997397;28;19926;-73
2022/08/25 11:36:42;;;;;;;;;;;39.70;93.40;;;;;;4989784;28;19941;-73
2022/08/25 11:39:15;;;;;;;;;;;41.80;92.80;;;;;;4989445;28;19930;-72
2022/08/25 11:41:50;;;;;;;;;;;43.50;91.50;;;;;;4990080;28;20381;-73
2022/08/25 11:44:34;;;;;;;;;;;45.20;91.00;;;;;;4998640;28;20390;-72
2022/08/25 11:47:11;;;;;;;;;;;46.00;88.10;;;;;;4999191;28;19933;-73
2022/08/25 11:49:56;;;;;;;;;;;46.20;85.60;;;;;;5008046;28;19926;-69
2022/08/25 11:52:44;;;;;;;;;;;46.50;84.00;;;;;;4993268;28;19941;-72
2022/08/25 11:55:13;;;;;;;;;;;46.70;82.80;;;;;;5003314;28;19965;-72
2022/08/25 11:57:40;;;;;;;;;;;46.50;83.50;;;;;;4989587;28;19976;-72
2022/08/25 12:00:13;;;;;;;;;;;47.60;82.20;;;;;;4989286;28;19925;-72
2022/08/25 12:02:41;;;;;;;;;;;47.70;81.60;;;;;;4989509;28;19925;-73
2022/08/25 12:05:09;;;;;;;;;;;48.00;78.90;;;;;;4989210;28;20045;-73
2022/08/25 12:10:50;;;;;;;;;;;48.20;77.40;;;;;;5008222;28;20437;-73
2022/08/25 12:13:26;;;;;;;;;;;49.10;77.70;;;;;;5005866;28;19988;-73
2022/08/25 12:15:55;;;;;;;;;;;48.90;77.10;;;;;;4988348;28;19965;-73
2022/08/25 12:18:42;;;;;;;;;;;49.30;76.30;;;;;;4990057;28;19973;-72
2022/08/25 12:21:09;;;;;;;;;;;48.30;76.90;;;;;;4989186;28;20081;-73
2022/08/25 12:23:37;;;;;;;;;;;48.50;75.70;;;;;;4994837;28;19965;-73
2022/08/25 12:26:08;;;;;;;;;;;48.30;76.10;;;;;;4993316;28;19933;-72
2022/08/25 12:28:41;;;;;;;;;;;47.90;77.50;;;;;;4992878;28;20013;-72
2022/08/25 12:31:15;;;;;;;;;;;48.40;77.70;;;;;;4993052;28;19932;-72
2022/08/25 12:33:47;;;;;;;;;;;47.80;75.50;;;;;;4992439;28;19976;-72
2022/08/25 12:36:26;;;;;;;;;;;48.00;75.60;;;;;;4996238;28;19930;-73
2022/08/25 12:38:52;;;;;;;;;;;48.10;75.70;;;;;;4994472;28;19926;-72
2022/08/25 12:41:21;;;;;;;;;;;48.50;76.30;;;;;;4995559;28;19934;-72
2022/08/25 12:43:51;;;;;;;;;;;48.80;74.90;;;;;;4990540;28;20390;-73
2022/08/25 12:46:34;;;;;;;;;;;48.40;75.00;;;;;;4993537;28;19931;-73
2022/08/25 12:49:01;;;;;;;;;;;47.70;74.80;;;;;;4998143;28;19929;-72
2022/08/25 12:51:40;;;;;;;;;;;46.40;75.60;;;;;;4990486;28;19929;-72
2022/08/25 12:54:12;;;;;;;;;;;46.10;75.10;;;;;;4992428;28;19930;-73
2022/08/25 12:56:42;;;;;;;;;;;46.20;74.60;;;;;;4990848;28;20345;-73
2022/08/25 12:59:15;;;;;;;;;;;45.40;75.00;;;;;;4994631;28;20390;-74
2022/08/25 13:01:49;;;;;;;;;;;44.90;75.20;;;;;;4993425;28;20357;-74
2022/08/25 13:04:29;;;;;;;;;;;44.60;76.50;;;;;;4992597;28;20420;-74
2022/08/25 13:07:04;;;;;;;;;;;44.50;75.90;;;;;;4987904;28;19926;-74
2022/08/25 13:09:49;;;;;;;;;;;45.20;77.30;;;;;;4996956;28;20344;-73
2022/08/25 13:12:18;;;;;;;;;;;45.30;75.50;;;;;;4992439;28;19976;-74
2022/08/25 13:14:56;;;;;;;;;;;45.10;75.00;;;;;;4992280;28;20313;-74
2022/08/25 13:17:27;;;;;;;;;;;45.50;75.50;;;;;;4991949;28;19926;-72
2022/08/25 13:20:08;;;;;;;;;;;45.70;76.00;;;;;;4991425;28;19926;-73
2022/08/25 13:22:35;;;;;;;;;;;45.70;75.70;;;;;;5001830;28;20357;-71
2022/08/25 13:25:04;;;;;;;;;;;44.70;76.10;;;;;;5008278;28;19926;-71
2022/08/25 13:27:32;;;;;;;;;;;43.60;76.40;;;;;;5005148;28;19961;-69
2022/08/25 13:30:04;;;;;;;;;;;44.30;76.80;;;;;;4991232;28;19958;-70
2022/08/25 13:32:31;;;;;;;;;;;45.10;77.50;;;;;;4992249;28;19937;-71
2022/08/25 13:35:08;;;;;;;;;;;45.30;77.00;;;;;;4992980;28;20405;-70
2022/08/25 13:37:34;;;;;;;;;;;45.30;76.10;;;;;;4989375;28;20452;-70
2022/08/25 13:40:09;;;;;;;;;;;45.60;75.60;;;;;;4992189;28;19922;-70
2022/08/25 13:42:36;;;;;;;;;;;45.70;74.70;;;;;;4989861;28;20306;-71
2022/08/25 13:45:06;;;;;;;;;;;45.50;75.40;;;;;;4993829;28;19933;-71
2022/08/25 13:47:34;;;;;;;;;;;46.20;75.10;;;;;;4993001;28;19930;-72
2022/08/25 13:50:15;;;;;;;;;;;45.50;73.70;;;;;;5007837;28;19929;-72
2022/08/25 13:52:43;;;;;;;;;;;45.90;75.10;;;;;;4989687;28;20282;-70
2022/08/25 13:55:10;;;;;;;;;;;45.90;74.50;;;;;;4994288;28;19934;-71
2022/08/25 13:57:41;;;;;;;;;;;44.50;74.10;;;;;;4992202;28;19926;-71
2022/08/25 14:00:11;;;;;;;;;;;45.30;74.20;;;;;;4991693;28;19926;-71
2022/08/25 14:02:43;;;;;;;;;;;45.90;74.30;;;;;;4991956;28;19929;-75
2022/08/25 14:05:10;;;;;;;;;;;45.90;74.50;;;;;;5006229;28;19926;-71
2022/08/25 14:07:37;;;;;;;;;;;45.60;74.50;;;;;;4990422;28;19926;-71
2022/08/25 14:10:06;;;;;;;;;;;45.60;74.40;;;;;;4989007;28;19925;-71
2022/08/25 14:12:34;;;;;;;;;;;45.60;74.60;;;;;;4989568;28;19926;-70
2022/08/25 14:15:03;;;;;;;;;;;45.60;74.10;;;;;;4988935;28;19936;-70
2022/08/25 14:17:32;;;;;;;;;;;45.30;73.90;;;;;;4989334;28;19965;-69
2022/08/25 14:19:59;;;;;;;;;;;45.30;74.20;;;;;;4991196;28;19933;-70
2022/08/25 14:22:26;;;;;;;;;;;45.90;74.90;;;;;;4991128;28;19934;-70
2022/08/25 14:24:54;;;;;;;;;;;46.30;74.40;;;;;;4991112;28;19929;-70
2022/08/25 14:27:21;;;;;;;;;;;46.10;73.50;;;;;;4992309;28;20418;-70
2022/08/25 14:29:48;;;;;;;;;;;45.90;73.40;;;;;;4990533;28;19933;-70
2022/08/25 14:32:15;;;;;;;;;;;45.50;73.70;;;;;;4991011;28;19970;-71
2022/08/25 14:34:44;;;;;;;;;;;45.40;73.80;;;;;;4991729;28;20028;-71
2022/08/25 14:37:13;;;;;;;;;;;45.70;73.50;;;;;;4990818;28;19929;-71
2022/08/25 14:39:40;;;;;;;;;;;46.20;73.10;;;;;;4990293;28;19926;-71
2022/08/25 14:42:07;;;;;;;;;;;46.30;73.00;;;;;;4993381;28;19926;-70